createdAt,value
2022-10-12T00:01:00.830Z,98932.13
2022-10-12T00:03:27.432Z,98919.63
2022-10-12T00:06:04.672Z,98932.84
2022-10-12T00:08:31.526Z,98918.97
2022-10-12T00:10:58.305Z,98908.22
2022-10-12T00:13:25.660Z,98928.28
2022-10-12T00:15:52.083Z,98931.75
2022-10-12T00:18:18.932Z,98933.56
2022-10-12T00:20:45.466Z,98891.22
2022-10-12T00:23:12.146Z,98932.44
2022-10-12T00:25:40.153Z,98933.41
2022-10-12T00:28:07.638Z,98932.59
2022-10-12T00:30:34.851Z,98901.28
2022-10-12T00:33:01.213Z,98928.47
2022-10-12T00:35:30.720Z,98925.81
2022-10-12T00:37:57.124Z,98911.81
2022-10-12T00:40:23.887Z,98929.50
2022-10-12T00:42:50.326Z,98919.91
2022-10-12T00:45:16.977Z,98896.44
2022-10-12T00:47:49.739Z,98899.94
2022-10-12T00:50:20.900Z,98921.59
2022-10-12T00:53:09.504Z,98925.22
2022-10-12T00:55:40.368Z,98929.19
2022-10-12T00:58:08.378Z,98932.16
2022-10-12T01:00:37.602Z,98926.88
2022-10-12T01:03:06.623Z,98927.00
2022-10-12T01:05:33.698Z,98926.16
2022-10-12T01:08:02.556Z,98931.56
2022-10-12T01:10:29.054Z,98935.50
2022-10-12T01:12:55.542Z,98921.53
2022-10-12T01:15:26.321Z,98930.81
2022-10-12T01:18:02.221Z,98925.84
2022-10-12T01:20:55.977Z,98920.22
2022-10-12T01:24:05.548Z,98919.28
2022-10-12T01:26:59.174Z,98910.00
2022-10-12T01:29:37.961Z,98917.63
2022-10-12T01:32:16.434Z,98907.88
2022-10-12T01:35:34.880Z,98907.06
2022-10-12T01:38:10.908Z,98912.34
2022-10-12T01:40:42.085Z,98895.06
2022-10-12T01:43:08.849Z,98911.97
2022-10-12T01:45:35.325Z,98912.97
2022-10-12T01:48:02.771Z,98906.41
2022-10-12T01:50:42.336Z,98904.41
2022-10-12T01:53:21.057Z,98917.09
2022-10-12T01:56:10.072Z,98918.44
2022-10-12T01:58:58.448Z,98914.00
2022-10-12T02:01:30.951Z,98917.97
2022-10-12T02:04:17.570Z,98918.50
2022-10-12T02:07:05.668Z,98906.72
2022-10-12T02:09:36.269Z,98880.56
2022-10-12T02:12:18.486Z,98914.00
2022-10-12T02:14:56.973Z,98905.44
2022-10-12T02:17:23.821Z,98904.13
2022-10-12T02:19:57.097Z,98903.13
2022-10-12T02:22:26.823Z,98894.22
2022-10-12T02:24:57.762Z,98892.88
2022-10-12T02:27:26.481Z,98889.09
2022-10-12T02:29:53.666Z,98887.28
2022-10-12T02:32:38.121Z,98889.59
2022-10-12T02:35:10.298Z,98885.28
2022-10-12T02:37:42.660Z,98892.25
2022-10-12T02:40:24.139Z,98881.34
2022-10-12T02:43:10.295Z,98882.84
2022-10-12T02:45:40.946Z,98880.06
2022-10-12T02:48:11.131Z,98879.69
2022-10-12T02:50:38.478Z,98869.16
2022-10-12T02:53:05.927Z,98837.81
2022-10-12T02:55:32.359Z,98872.78
2022-10-12T02:57:58.788Z,98870.16
2022-10-12T03:00:25.206Z,98858.63
2022-10-12T03:02:51.612Z,98836.22
2022-10-12T03:05:18.047Z,98855.66
2022-10-12T03:07:44.489Z,98864.22
2022-10-12T03:10:11.651Z,98864.22
2022-10-12T03:12:37.992Z,98884.53
2022-10-12T03:15:04.897Z,98871.50
2022-10-12T03:17:31.275Z,98868.88
2022-10-12T03:19:57.673Z,98874.16
2022-10-12T03:22:24.153Z,98869.13
2022-10-12T03:24:50.516Z,98879.03
2022-10-12T03:27:16.957Z,98878.88
2022-10-12T03:29:44.062Z,98875.63
2022-10-12T03:32:10.494Z,98880.41
2022-10-12T03:34:37.046Z,98875.47
2022-10-12T03:37:03.514Z,98869.81
2022-10-12T03:39:29.965Z,98884.03
2022-10-12T03:41:56.424Z,98879.59
2022-10-12T03:44:22.866Z,98882.06
2022-10-12T03:46:49.272Z,98889.28
2022-10-12T03:49:15.624Z,98883.31
2022-10-12T03:51:42.074Z,98883.31
2022-10-12T03:54:08.472Z,98885.13
2022-10-12T03:56:34.949Z,98890.91
2022-10-12T03:59:01.430Z,98877.06
2022-10-12T04:01:27.861Z,98885.44
2022-10-12T04:03:54.314Z,98871.75
2022-10-12T04:06:20.698Z,98883.97
2022-10-12T04:08:50.624Z,98882.66
2022-10-12T04:11:17.548Z,98884.97
2022-10-12T04:13:44.305Z,98880.69
2022-10-12T04:16:10.714Z,98853.66
2022-10-12T04:18:37.141Z,98880.19
2022-10-12T04:21:09.850Z,98880.03
2022-10-12T04:23:36.338Z,98875.75
2022-10-12T04:26:02.812Z,98848.03
2022-10-12T04:28:29.394Z,98869.63
2022-10-12T04:30:55.788Z,98876.03
2022-10-12T04:33:22.271Z,98872.75
2022-10-12T04:35:48.646Z,98876.06
2022-10-12T04:38:15.130Z,98871.28
2022-10-12T04:40:49.463Z,98882.47
2022-10-12T04:43:16.755Z,98892.84
2022-10-12T04:45:43.226Z,98893.34
2022-10-12T04:48:09.604Z,98886.94
2022-10-12T04:50:36.447Z,98888.75
2022-10-12T04:53:02.946Z,98892.25
2022-10-12T04:55:29.373Z,98887.59
2022-10-12T04:57:55.806Z,98892.75
2022-10-12T05:00:22.198Z,98896.34
2022-10-12T05:02:48.758Z,98894.88
2022-10-12T05:05:15.203Z,98898.00
2022-10-12T05:07:41.614Z,98901.28
2022-10-12T05:10:08.356Z,98869.63
2022-10-12T05:12:34.860Z,98893.84
2022-10-12T05:15:01.486Z,98890.22
2022-10-12T05:17:28.180Z,98888.19
2022-10-12T05:19:54.602Z,98887.19
2022-10-12T05:22:21.018Z,98884.06
2022-10-12T05:24:52.746Z,98882.91
2022-10-12T05:27:20.910Z,98888.66
2022-10-12T05:29:47.713Z,98878.34
2022-10-12T05:32:14.531Z,98888.41
2022-10-12T05:34:42.297Z,98889.72
2022-10-12T05:37:08.701Z,98884.59
2022-10-12T05:39:36.750Z,98884.75
2022-10-12T05:42:03.969Z,98892.50
2022-10-12T05:44:30.780Z,98886.72
2022-10-12T05:46:57.199Z,98897.28
2022-10-12T05:49:23.774Z,98893.66
2022-10-12T05:51:50.237Z,98896.81
2022-10-12T05:54:16.626Z,98895.84
2022-10-12T05:56:43.261Z,98895.66
2022-10-12T05:59:11.289Z,98776.44
2022-10-12T06:01:38.332Z,98887.94
2022-10-12T06:04:04.899Z,98885.78
2022-10-12T06:06:31.363Z,98888.25
2022-10-12T06:08:57.746Z,98879.34
2022-10-12T06:11:24.524Z,98882.13
2022-10-12T06:13:50.910Z,98885.63
2022-10-12T06:16:17.301Z,98884.97
2022-10-12T06:18:43.712Z,98878.06
2022-10-12T06:23:56.550Z,98874.41
2022-10-12T06:26:23.330Z,98881.69
2022-10-12T06:28:49.754Z,98874.16
2022-10-12T06:31:16.253Z,98877.25
2022-10-12T06:33:42.667Z,98878.94
2022-10-12T06:36:09.118Z,98885.34
2022-10-12T06:38:36.403Z,98882.19
2022-10-12T06:41:02.875Z,98858.81
2022-10-12T06:43:29.333Z,98880.56
2022-10-12T06:46:00.686Z,98855.59
2022-10-12T06:48:27.469Z,98884.56
2022-10-12T06:50:54.805Z,98886.03
2022-10-12T06:53:22.038Z,98883.78
2022-10-12T06:55:49.060Z,98887.66
2022-10-12T06:58:15.452Z,98884.00
2022-10-12T07:00:41.924Z,98882.13
2022-10-12T07:03:12.428Z,98855.38
2022-10-12T07:05:38.846Z,98875.94
2022-10-12T07:08:05.352Z,98879.72
2022-10-12T07:10:31.779Z,98883.78
2022-10-12T07:12:58.216Z,98874.63
2022-10-12T07:15:24.590Z,98858.44
2022-10-12T07:17:51.101Z,98873.13
2022-10-12T07:20:17.512Z,98880.22
2022-10-12T07:22:44.544Z,98887.81
2022-10-12T07:25:10.918Z,98888.38
2022-10-12T07:27:37.746Z,98891.56
2022-10-12T07:30:05.018Z,98893.88
2022-10-12T07:32:31.400Z,98895.50
2022-10-12T07:34:57.800Z,98892.25
2022-10-12T07:37:24.282Z,98893.94
2022-10-12T07:39:50.761Z,98904.59
2022-10-12T07:42:19.504Z,98895.00
2022-10-12T07:44:46.367Z,98892.31
2022-10-12T07:47:12.819Z,98896.41
2022-10-12T07:49:39.193Z,98899.66
2022-10-12T07:52:05.737Z,98908.84
2022-10-12T07:54:32.725Z,98893.41
2022-10-12T07:56:59.436Z,98891.91
2022-10-12T07:59:25.980Z,98889.63
2022-10-12T08:01:52.792Z,98895.09
2022-10-12T08:04:19.198Z,98896.34
2022-10-12T08:06:45.806Z,98897.69
2022-10-12T08:09:12.181Z,98904.53
2022-10-12T08:11:40.212Z,98893.31
2022-10-12T08:14:12.128Z,98889.84
2022-10-12T08:16:38.822Z,98893.84
2022-10-12T08:19:05.305Z,98886.13
2022-10-12T08:21:31.744Z,98864.88
2022-10-12T08:23:58.834Z,98869.13
2022-10-12T08:26:25.210Z,98891.06
2022-10-12T08:28:52.463Z,98887.38
2022-10-12T08:31:19.365Z,98881.59
2022-10-12T08:33:45.817Z,98888.97
2022-10-12T08:36:13.061Z,98873.00
2022-10-12T08:38:39.846Z,98881.94
2022-10-12T08:41:47.166Z,98865.38
2022-10-12T08:44:19.756Z,98879.72
2022-10-12T08:46:46.532Z,98870.41
2022-10-12T08:49:22.885Z,98877.50
2022-10-12T08:51:59.619Z,98798.16
2022-10-12T08:54:32.429Z,98853.28
2022-10-12T08:56:59.821Z,98872.94
2022-10-12T08:59:28.422Z,98875.91
2022-10-12T09:02:07.039Z,98871.75
2022-10-12T09:05:21.647Z,98877.13
2022-10-12T09:07:57.251Z,98874.66
2022-10-12T09:11:08.544Z,98873.53
2022-10-12T09:13:46.718Z,98877.13
2022-10-12T09:16:34.274Z,98883.78
2022-10-12T09:19:15.235Z,98876.66
2022-10-12T09:21:42.754Z,98883.75
2022-10-12T09:24:16.150Z,98873.84
2022-10-12T09:26:44.635Z,98881.69
2022-10-12T09:29:29.694Z,98881.91
2022-10-12T09:32:17.657Z,98879.72
2022-10-12T09:34:46.451Z,98873.91
2022-10-12T09:37:19.466Z,98812.75
2022-10-12T09:39:46.412Z,98879.50
2022-10-12T09:42:12.876Z,98856.16
2022-10-12T09:44:49.251Z,98870.81
2022-10-12T09:47:24.456Z,98867.06
2022-10-12T09:49:52.796Z,98852.91
2022-10-12T09:52:44.737Z,98841.66
2022-10-12T09:55:11.699Z,98861.28
2022-10-12T09:57:41.904Z,98868.03
2022-10-12T10:00:31.160Z,98864.66
2022-10-12T10:02:59.025Z,98861.22
2022-10-12T10:05:33.237Z,98852.88
2022-10-12T10:08:14.937Z,98859.56
2022-10-12T10:10:55.503Z,98854.16
2022-10-12T10:13:24.680Z,98862.47
2022-10-12T10:16:03.446Z,98856.44
2022-10-12T10:18:36.036Z,98854.91
2022-10-12T10:21:06.340Z,98850.25
2022-10-12T10:23:40.007Z,98828.22
2022-10-12T10:26:10.138Z,98836.03
2022-10-12T10:28:45.208Z,98852.94
2022-10-12T10:31:16.154Z,98852.00
2022-10-12T10:33:44.091Z,98849.50
2022-10-12T10:36:26.252Z,98833.84
2022-10-12T10:39:06.284Z,98855.59
2022-10-12T10:41:39.555Z,98853.97
2022-10-12T10:44:24.265Z,98789.94
2022-10-12T10:46:52.122Z,98853.72
2022-10-12T10:49:36.520Z,98858.69
2022-10-12T10:52:05.426Z,98852.19
2022-10-12T10:54:34.649Z,98857.56
2022-10-12T10:57:10.024Z,98845.91
2022-10-12T10:59:45.368Z,98844.19
2022-10-12T11:02:23.681Z,98840.38
2022-10-12T11:04:56.825Z,98840.22
2022-10-12T11:07:41.271Z,98818.38
2022-10-12T11:10:29.642Z,98829.34
2022-10-12T11:13:20.050Z,98822.75
2022-10-12T11:15:52.768Z,98807.03
2022-10-12T11:18:22.584Z,98819.25
2022-10-12T11:20:56.122Z,98817.19
2022-10-12T11:23:38.058Z,98808.00
2022-10-12T11:26:27.490Z,98806.22
2022-10-12T11:28:56.872Z,98803.09
2022-10-12T11:31:31.238Z,98793.75
2022-10-12T11:34:03.191Z,98805.09
2022-10-12T11:36:32.549Z,98797.44
2022-10-12T11:39:07.108Z,98807.78
2022-10-12T11:42:03.305Z,98790.75
2022-10-12T11:44:44.624Z,98767.06
2022-10-12T11:47:30.023Z,98784.78
2022-10-12T11:50:25.222Z,98782.25
2022-10-12T11:52:54.833Z,98773.44
2022-10-12T11:55:27.055Z,98779.34
2022-10-12T11:57:56.704Z,98771.34
2022-10-12T12:00:35.542Z,98771.94
2022-10-12T12:03:20.745Z,98775.59
2022-10-12T12:05:47.934Z,98765.38
2022-10-12T12:08:22.819Z,98772.25
2022-10-12T12:11:02.427Z,98771.97
2022-10-12T12:13:29.105Z,98764.78
2022-10-12T12:15:55.438Z,98767.22
2022-10-12T12:18:28.086Z,98737.09
2022-10-12T12:21:07.341Z,98759.47
2022-10-12T12:24:00.144Z,98763.50
2022-10-12T12:26:30.247Z,98751.59
2022-10-12T12:29:27.241Z,98747.13
2022-10-12T12:31:56.399Z,98748.03
2022-10-12T12:34:23.372Z,98724.34
2022-10-12T12:36:51.565Z,98724.28
2022-10-12T12:39:32.352Z,98760.19
2022-10-12T12:42:02.734Z,98747.69
2022-10-12T12:44:37.522Z,98743.44
2022-10-12T12:50:23.685Z,98737.00
2022-10-12T12:52:50.681Z,98746.13
2022-10-12T12:55:29.672Z,98749.09
2022-10-12T12:58:12.036Z,98754.41
2022-10-12T13:00:53.519Z,98744.69
2022-10-12T13:03:58.057Z,98746.28
2022-10-12T13:06:30.235Z,98746.81
2022-10-12T13:09:44.264Z,98745.88
2022-10-12T13:12:32.533Z,98747.72
2022-10-12T13:15:06.642Z,98751.47
2022-10-12T13:17:45.555Z,98739.38
2022-10-12T13:20:15.514Z,98744.44
2022-10-12T13:22:44.465Z,98743.03
2022-10-12T13:25:22.142Z,98739.63
2022-10-12T13:27:50.239Z,98740.44
2022-10-12T13:30:19.477Z,98739.69
2022-10-12T13:33:11.244Z,98752.25
2022-10-12T13:35:47.247Z,98735.34
2022-10-12T13:38:13.699Z,98739.25
2022-10-12T13:41:02.334Z,98740.88
2022-10-12T13:43:33.889Z,98747.78
2022-10-12T13:46:01.214Z,98744.91
2022-10-12T13:48:53.784Z,98721.84
2022-10-12T13:51:27.154Z,98746.16
2022-10-12T13:53:54.129Z,98742.63
2022-10-12T13:56:24.281Z,98744.28
2022-10-12T13:58:56.705Z,98722.34
2022-10-12T14:01:23.166Z,98737.56
2022-10-12T14:03:49.859Z,98733.50
2022-10-12T14:06:33.100Z,98730.34
2022-10-12T14:09:08.957Z,98734.59
2022-10-12T14:11:35.962Z,98735.16
2022-10-12T14:14:03.122Z,98737.06
2022-10-12T14:16:29.770Z,98741.56
2022-10-12T14:19:16.107Z,98732.41
2022-10-12T14:21:47.093Z,98732.88
2022-10-12T14:24:19.187Z,98727.50
2022-10-12T14:26:54.045Z,98725.03
2022-10-12T14:29:29.042Z,98726.19
2022-10-12T14:31:58.063Z,98723.72
2022-10-12T14:34:27.406Z,98716.78
2022-10-12T14:37:05.956Z,98716.84
2022-10-12T14:39:33.186Z,98714.59
2022-10-12T14:42:04.753Z,98708.06
2022-10-12T14:44:42.909Z,98709.44
2022-10-12T14:47:24.563Z,98713.00
2022-10-12T14:49:53.600Z,98719.16
2022-10-12T14:52:36.894Z,98717.00
2022-10-12T14:55:03.810Z,98725.66
2022-10-12T14:57:31.269Z,98734.72
2022-10-12T14:59:58.601Z,98734.59
2022-10-12T15:02:29.445Z,98732.31
2022-10-12T15:04:56.411Z,98720.88
2022-10-12T15:07:26.263Z,98714.63
2022-10-12T15:09:53.222Z,98714.72
2022-10-12T15:12:22.666Z,98716.28
2022-10-12T15:14:50.549Z,98714.25
2022-10-12T15:17:19.492Z,98713.94
2022-10-12T15:19:47.796Z,98695.75
2022-10-12T15:22:22.872Z,98717.69
2022-10-12T15:24:51.113Z,98711.78
2022-10-12T15:27:17.566Z,98707.09
2022-10-12T15:29:44.092Z,98715.50
2022-10-12T15:32:12.321Z,98713.63
2022-10-12T15:34:38.932Z,98714.25
2022-10-12T15:37:09.111Z,98720.63
2022-10-12T15:39:36.121Z,98713.44
2022-10-12T15:42:02.810Z,98719.81
2022-10-12T15:44:29.351Z,98718.06
2022-10-12T15:46:55.776Z,98710.94
2022-10-12T15:49:25.518Z,98708.06
2022-10-12T15:51:54.708Z,98708.59
2022-10-12T15:54:21.644Z,98697.56
2022-10-12T15:56:48.145Z,98711.13
2022-10-12T15:59:14.606Z,98697.19
2022-10-12T16:01:43.637Z,98697.94
2022-10-12T16:04:14.710Z,98696.00
2022-10-12T16:06:41.379Z,98702.69
2022-10-12T16:09:07.970Z,98697.53
2022-10-12T16:11:34.411Z,98705.47
2022-10-12T16:14:01.751Z,98681.13
2022-10-12T16:16:29.939Z,98707.00
2022-10-12T16:18:56.329Z,98681.94
2022-10-12T16:21:22.771Z,98707.34
2022-10-12T16:23:49.288Z,98705.97
2022-10-12T16:26:15.873Z,98702.84
2022-10-12T16:28:42.476Z,98710.16
2022-10-12T16:31:15.691Z,98707.38
2022-10-12T16:33:42.395Z,98681.38
2022-10-12T16:36:14.367Z,98699.34
2022-10-12T16:38:41.585Z,98697.47
2022-10-12T16:41:13.111Z,98692.69
2022-10-12T16:43:39.934Z,98674.03
2022-10-12T16:46:07.173Z,98694.44
2022-10-12T16:48:33.647Z,98699.88
2022-10-12T16:51:00.110Z,98701.09
2022-10-12T16:53:26.814Z,98685.16
2022-10-12T16:55:53.197Z,98696.34
2022-10-12T16:58:19.678Z,98702.13
2022-10-12T17:00:46.255Z,98685.53
2022-10-12T17:03:13.962Z,98719.38
2022-10-12T17:05:41.956Z,98720.44
2022-10-12T17:08:12.515Z,98721.69
2022-10-12T17:10:45.004Z,98715.53
2022-10-12T17:13:13.432Z,98716.84
2022-10-12T17:15:41.342Z,98714.81
2022-10-12T17:18:07.998Z,98721.03
2022-10-12T17:20:35.666Z,98702.03
2022-10-12T17:23:02.109Z,98718.91
2022-10-12T17:25:28.894Z,98725.81
2022-10-12T17:27:55.290Z,98725.91
2022-10-12T17:30:21.826Z,98726.75
2022-10-12T17:32:48.265Z,98734.38
2022-10-12T17:35:14.799Z,98735.09
2022-10-12T17:37:41.202Z,98732.75
2022-10-12T17:40:10.525Z,98737.47
2022-10-12T17:42:37.034Z,98726.81
2022-10-12T17:45:03.942Z,98726.50
2022-10-12T17:47:30.344Z,98740.69
2022-10-12T17:49:56.696Z,98741.72
2022-10-12T17:52:23.166Z,98736.22
2022-10-12T17:54:49.533Z,98732.88
2022-10-12T17:57:16.452Z,98729.59
2022-10-12T17:59:43.015Z,98729.50
2022-10-12T18:02:10.185Z,98733.16
2022-10-12T18:04:36.626Z,98738.34
2022-10-12T18:07:03.166Z,98737.34
2022-10-12T18:09:30.850Z,98738.59
2022-10-12T18:11:57.248Z,98736.38
2022-10-12T18:14:24.604Z,98740.94
2022-10-12T18:16:51.650Z,98738.72
2022-10-12T18:19:18.077Z,98739.84
2022-10-12T18:21:44.646Z,98749.50
2022-10-12T18:24:16.331Z,98747.91
2022-10-12T18:26:45.386Z,98752.00
2022-10-12T18:29:14.981Z,98752.53
2022-10-12T18:31:41.437Z,98743.81
2022-10-12T18:34:07.991Z,98741.94
2022-10-12T18:36:34.521Z,98730.13
2022-10-12T18:39:02.546Z,98742.59
2022-10-12T18:41:29.328Z,98737.09
2022-10-12T18:43:57.939Z,98721.78
2022-10-12T18:46:27.380Z,98729.78
2022-10-12T18:48:54.045Z,98725.47
2022-10-12T18:51:20.525Z,98719.78
2022-10-12T18:53:47.733Z,98696.06
2022-10-12T18:56:14.186Z,98724.31
2022-10-12T18:58:41.860Z,98723.31
2022-10-12T19:01:14.514Z,98728.00
2022-10-12T19:03:41.928Z,98727.63
2022-10-12T19:06:12.121Z,98730.47
2022-10-12T19:08:38.819Z,98734.63
2022-10-12T19:11:08.070Z,98745.94
2022-10-12T19:13:36.312Z,98740.13
2022-10-12T19:16:06.613Z,98736.22
2022-10-12T19:18:33.414Z,98736.25
2022-10-12T19:21:05.022Z,98751.47
2022-10-12T19:23:31.987Z,98746.72
2022-10-12T19:26:03.236Z,98743.47
2022-10-12T19:28:29.810Z,98747.75
2022-10-12T19:30:56.320Z,98746.50
2022-10-12T19:33:22.705Z,98747.13
2022-10-12T19:35:49.164Z,98756.97
2022-10-12T19:38:15.612Z,98741.41
2022-10-12T19:40:43.155Z,98750.41
2022-10-12T19:43:09.531Z,98717.84
2022-10-12T19:45:40.686Z,98739.94
2022-10-12T19:48:07.837Z,98732.50
2022-10-12T19:50:35.017Z,98726.59
2022-10-12T19:53:01.777Z,98726.16
2022-10-12T19:55:32.785Z,98729.66
2022-10-12T19:58:00.809Z,98729.44
2022-10-12T20:00:27.694Z,98729.47
2022-10-12T20:02:54.253Z,98729.28
2022-10-12T20:05:20.727Z,98733.16
2022-10-12T20:07:47.186Z,98744.41
2022-10-12T20:10:13.691Z,98740.78
2022-10-12T20:12:40.232Z,98743.06
2022-10-12T20:15:07.728Z,98758.66
2022-10-12T20:17:34.166Z,98766.25
2022-10-12T20:20:00.569Z,98761.94
2022-10-12T20:22:26.980Z,98756.03
2022-10-12T20:24:53.441Z,98749.44
2022-10-12T20:27:20.150Z,98717.72
2022-10-12T20:29:46.654Z,98761.97
2022-10-12T20:32:13.155Z,98734.09
2022-10-12T20:34:39.763Z,98747.19
2022-10-12T20:37:06.255Z,98758.91
2022-10-12T20:39:33.849Z,98748.03
2022-10-12T20:42:00.453Z,98743.53
2022-10-12T20:44:26.961Z,98741.44
2022-10-12T20:46:55.018Z,98744.72
2022-10-12T20:49:21.841Z,98707.44
2022-10-12T20:51:48.249Z,98747.56
2022-10-12T20:54:18.109Z,98681.25
2022-10-12T20:56:47.432Z,98739.38
2022-10-12T20:59:13.811Z,98736.09
2022-10-12T21:01:40.341Z,98716.28
2022-10-12T21:04:06.805Z,98753.53
2022-10-12T21:06:34.640Z,98736.94
2022-10-12T21:09:01.006Z,98746.78
2022-10-12T21:11:27.643Z,98748.41
2022-10-12T21:13:54.495Z,98739.41
2022-10-12T21:16:20.990Z,98748.63
2022-10-12T21:18:47.879Z,98746.34
2022-10-12T21:21:16.871Z,98742.66
2022-10-12T21:23:58.058Z,98742.47
2022-10-12T21:26:27.081Z,98738.56
2022-10-12T21:28:54.170Z,98734.50
2022-10-12T21:31:21.520Z,98740.22
2022-10-12T21:33:48.005Z,98746.56
2022-10-12T21:36:22.994Z,98736.94
2022-10-12T21:38:50.234Z,98751.06
2022-10-12T21:41:19.500Z,98746.59
2022-10-12T21:43:46.506Z,98752.94
2022-10-12T21:46:15.557Z,98727.56
2022-10-12T21:48:42.429Z,98737.78
2022-10-12T21:51:09.477Z,98741.88
2022-10-12T21:53:37.306Z,98739.84
2022-10-12T21:56:23.759Z,98737.19
2022-10-12T21:58:51.958Z,98725.06
2022-10-12T22:01:21.903Z,98730.59
2022-10-12T22:03:52.908Z,98730.19
2022-10-12T22:06:21.216Z,98732.06
2022-10-12T22:08:58.121Z,98683.09
2022-10-12T22:11:27.103Z,98717.09
2022-10-12T22:13:59.222Z,98716.88
2022-10-12T22:16:27.984Z,98717.28
2022-10-12T22:18:57.349Z,98720.16
2022-10-12T22:21:30.538Z,98735.94
2022-10-12T22:23:57.065Z,98736.13
2022-10-12T22:26:23.890Z,98734.50
2022-10-12T22:28:52.968Z,98723.44
2022-10-12T22:31:20.802Z,98727.97
2022-10-12T22:33:47.548Z,98729.16
2022-10-12T22:36:15.210Z,98730.41
2022-10-12T22:38:42.581Z,98733.69
2022-10-12T22:41:22.807Z,98734.31
2022-10-12T22:43:54.301Z,98702.75
2022-10-12T22:46:23.944Z,98732.47
2022-10-12T22:48:50.522Z,98729.19
2022-10-12T22:51:25.898Z,98736.56
2022-10-12T22:53:52.378Z,98730.59
2022-10-12T22:56:19.009Z,98742.88
2022-10-12T22:58:48.250Z,98742.66
2022-10-12T23:01:17.161Z,98701.09
2022-10-12T23:03:43.654Z,98740.81
2022-10-12T23:06:11.889Z,98732.41
2022-10-12T23:08:38.686Z,98730.94
2022-10-12T23:11:07.926Z,98721.34
2022-10-12T23:13:35.866Z,98727.91
2022-10-12T23:16:07.497Z,98716.41
2022-10-12T23:18:34.130Z,98695.31
2022-10-12T23:21:04.941Z,98717.03
2022-10-12T23:23:33.582Z,98726.19
2022-10-12T23:26:15.342Z,98713.31
2022-10-12T23:28:42.460Z,98711.22
2022-10-12T23:31:17.401Z,98706.75
2022-10-12T23:33:44.320Z,98711.84
2022-10-12T23:36:13.424Z,98708.13
2022-10-12T23:38:41.267Z,98715.94
2022-10-12T23:41:08.307Z,98681.16
2022-10-12T23:43:35.534Z,98712.50
2022-10-12T23:46:04.740Z,98707.81
2022-10-12T23:48:31.961Z,98686.06
2022-10-12T23:50:58.374Z,98711.06
2022-10-12T23:53:25.474Z,98707.81
2022-10-12T23:55:52.648Z,98707.38
2022-10-12T23:58:19.909Z,98712.28
